KCPC Airport (Columbus County Muni) Information

FAA: CPC - ICAO: KCPC

KCPC Airport Location

State North Carolina
County Columbus
City Whiteville
KCPC Airport is 3 miles south of Whiteville, NC.
Latitude 34-16-22.3000N
Longitude 078-42-54.0000W
Elevation 99ft

KCPC Airport METARs

METAR KCPC 060635Z AUTO 23004KT 10SM -RA CLR 27/23 A3001 RMK AO2 T02650230
Altimeter 30.01"
Temperature 26.5°C (79.7°F)
Wind 230° at 4KT
Clouds Skies are clear.
Visibility 10.0mi
Time observed: 2022-07-06T06:35:00Z

KCPC Airport Details

Status Operational
Activation N/A
Ownership Public
Usage Public
Chart CHARLOTTE
ATC on-site No
Beacon schedule sunset-sunrise
Beacon color clear green

KCPC Airport Contacts

Owner COLUMBUS COUNTY
Owner address 111 WASHINGTON ST, WHITEVILLE, NC 28472
Owner phone 910-640-6601
Manager JOHN C. WALLACE
Manager address 402 E. MAIN ST, TROY, NC 27371
Manager phone 910-576-3041

KCPC Airport (Columbus County Muni) Radio Frequencies

KCPC (Airport) Radio Frequencies

UNICOM 122.8
Common traffic advisory frequency (CTAF) 122.8